Time;durP1;ratioP1;P1;durP2;ratioP2;P2;SDS_P1;SDS_P2;PMS_P1;PMS_P2;Temp;Humidity;BMP_temperature;BMP_pressure;BME280_temperature;BME280_humidity;BME280_pressure;Samples;Min_cycle;Max_cycle;Signal;HPM_P1;HPM_P2
2021/05/01 00:02:15;;;;;;;10.10;6.10;;;18.20;99.90;;;;;;5097270;28;20263;-70
2021/05/01 00:04:41;;;;;;;5.60;5.03;;;18.20;99.90;;;;;;5096774;28;20184;-70
2021/05/01 00:07:06;;;;;;;6.77;5.30;;;18.20;99.90;;;;;;5097172;28;20418;-70
2021/05/01 00:09:32;;;;;;;10.30;6.50;;;18.20;99.90;;;;;;5096478;28;20655;-70
2021/05/01 00:11:58;;;;;;;11.47;6.50;;;18.10;99.90;;;;;;5096671;28;20516;-70
2021/05/01 00:14:28;;;;;;;7.60;6.77;;;17.90;99.90;;;;;;5096667;28;20729;-70
2021/05/01 00:16:54;;;;;;;7.30;6.50;;;17.80;99.90;;;;;;5096933;28;20562;-70
2021/05/01 00:19:20;;;;;;;9.97;6.40;;;17.60;99.90;;;;;;5096635;28;20460;-70
2021/05/01 00:21:46;;;;;;;9.07;6.67;;;17.60;99.90;;;;;;5096768;28;20418;-70
2021/05/01 00:24:12;;;;;;;7.73;6.27;;;17.80;99.90;;;;;;5094039;28;20445;-70
2021/05/01 00:26:37;;;;;;;9.30;6.17;;;17.90;99.90;;;;;;5095191;28;20934;-70
2021/05/01 00:29:03;;;;;;;10.13;6.23;;;17.80;99.90;;;;;;5096085;28;20231;-70
2021/05/01 00:31:29;;;;;;;8.90;5.70;;;17.80;99.90;;;;;;5096538;28;20181;-70
2021/05/01 00:33:55;;;;;;;7.07;5.63;;;17.90;99.90;;;;;;5096134;28;20228;-70
2021/05/01 00:36:21;;;;;;;7.33;5.43;;;18.00;99.90;;;;;;5096444;28;20410;-70
2021/05/01 00:38:46;;;;;;;6.97;6.27;;;18.00;99.90;;;;;;5096210;28;20954;-70
2021/05/01 00:41:12;;;;;;;7.63;5.63;;;18.00;99.90;;;;;;5096315;28;20180;-70
2021/05/01 00:43:41;;;;;;;8.63;5.03;;;18.10;99.90;;;;;;5096121;28;20196;-70
2021/05/01 00:46:07;;;;;;;6.93;5.43;;;18.10;99.90;;;;;;5095980;28;20183;-70
2021/05/01 00:48:33;;;;;;;7.80;6.23;;;18.20;99.90;;;;;;5094471;28;20505;-70
2021/05/01 00:51:01;;;;;;;8.17;6.13;;;18.20;99.90;;;;;;5096015;28;20518;-70
2021/05/01 00:53:27;;;;;;;9.43;5.83;;;18.20;99.90;;;;;;5111695;28;20469;-70
2021/05/01 00:55:53;;;;;;;11.20;7.43;;;18.20;99.90;;;;;;5094691;28;20827;-70
2021/05/01 00:58:20;;;;;;;9.07;6.60;;;18.10;99.90;;;;;;5094520;28;20816;-70
2021/05/01 01:03:34;;;;;;;10.10;6.40;;;18.20;99.90;;;;;;5095871;28;20494;-70
2021/05/01 01:06:00;;;;;;;10.53;6.53;;;18.20;99.90;;;;;;5095725;28;20854;-70
2021/05/01 01:08:26;;;;;;;10.50;6.50;;;18.20;99.90;;;;;;5094385;28;20467;-70
2021/05/01 01:10:53;;;;;;;8.33;6.33;;;18.30;99.90;;;;;;5095661;28;20406;-70
2021/05/01 01:13:19;;;;;;;10.20;6.57;;;18.20;99.90;;;;;;5095467;28;20496;-70
2021/05/01 01:15:44;;;;;;;10.30;6.77;;;18.20;99.90;;;;;;5095466;28;20454;-70
2021/05/01 01:18:10;;;;;;;9.80;6.80;;;18.10;99.90;;;;;;5095460;28;20949;-70
2021/05/01 01:20:36;;;;;;;8.90;7.07;;;18.10;99.90;;;;;;5095422;28;20181;-70
2021/05/01 01:23:02;;;;;;;9.00;6.37;;;18.10;99.90;;;;;;5095340;28;20260;-70
2021/05/01 01:25:28;;;;;;;8.60;7.27;;;18.10;99.90;;;;;;5095303;28;20199;-70
2021/05/01 01:27:54;;;;;;;11.40;7.50;;;18.10;99.90;;;;;;5095735;28;20845;-70
2021/05/01 01:30:25;;;;;;;8.97;5.80;;;18.10;99.90;;;;;;5093939;28;20446;-70
2021/05/01 01:32:51;;;;;;;8.10;6.40;;;18.20;99.90;;;;;;5095552;28;20648;-70
2021/05/01 01:35:17;;;;;;;8.17;6.80;;;18.20;99.90;;;;;;5094758;28;20502;-70
2021/05/01 01:37:45;;;;;;;11.40;6.60;;;18.20;99.90;;;;;;5095426;28;20263;-70
2021/05/01 01:40:13;;;;;;;9.30;6.70;;;18.20;99.90;;;;;;5110513;28;20219;-70
2021/05/01 01:42:41;;;;;;;10.13;6.03;;;18.20;99.90;;;;;;5093840;28;20449;-70
2021/05/01 01:45:08;;;;;;;7.00;6.30;;;18.20;99.90;;;;;;5093665;28;20779;-70
2021/05/01 01:47:34;;;;;;;9.73;6.43;;;18.20;99.90;;;;;;5094956;28;20460;-70
2021/05/01 01:50:00;;;;;;;12.13;6.77;;;18.20;99.90;;;;;;5094920;28;20398;-70
2021/05/01 01:52:25;;;;;;;8.13;7.17;;;18.20;99.90;;;;;;5095157;28;20290;-70
2021/05/01 01:54:51;;;;;;;8.90;6.93;;;18.10;99.90;;;;;;5094479;28;20180;-70
2021/05/01 01:57:17;;;;;;;7.90;6.37;;;18.10;99.90;;;;;;5095115;28;20219;-70
2021/05/01 01:59:43;;;;;;;8.50;6.73;;;18.10;99.90;;;;;;5093230;28;20454;-70
2021/05/01 02:02:09;;;;;;;9.87;6.97;;;18.00;99.90;;;;;;5093508;28;20187;-69
2021/05/01 02:04:35;;;;;;;9.23;6.43;;;18.00;99.90;;;;;;5094570;28;20433;-70
2021/05/01 02:07:01;;;;;;;7.93;6.37;;;18.10;99.90;;;;;;5094990;28;20413;-69
2021/05/01 02:09:26;;;;;;;9.00;7.43;;;18.10;99.90;;;;;;5094484;28;20199;-70
2021/05/01 02:11:52;;;;;;;8.00;6.47;;;18.10;99.90;;;;;;5094423;28;20252;-69
2021/05/01 02:14:18;;;;;;;9.27;6.47;;;18.10;99.90;;;;;;5109971;28;20697;-70
2021/05/01 02:16:44;;;;;;;8.07;5.67;;;18.10;99.90;;;;;;5094501;28;20413;-70
2021/05/01 02:19:09;;;;;;;9.53;6.70;;;18.10;99.90;;;;;;5094319;28;20189;-70
2021/05/01 02:21:35;;;;;;;9.47;6.97;;;18.10;99.90;;;;;;5094482;28;20184;-70
2021/05/01 02:24:01;;;;;;;7.67;6.47;;;18.10;99.90;;;;;;5094241;28;20201;-70
2021/05/01 02:26:27;;;;;;;8.37;6.70;;;18.00;99.90;;;;;;5094391;28;20180;-70
2021/05/01 02:28:53;;;;;;;8.77;6.07;;;18.00;99.90;;;;;;5094136;28;20190;-70
2021/05/01 02:31:19;;;;;;;6.20;5.40;;;18.00;99.90;;;;;;5092945;28;20423;-70
2021/05/01 02:33:44;;;;;;;9.13;6.30;;;18.00;99.90;;;;;;5094022;28;20586;-70
2021/05/01 02:36:10;;;;;;;8.47;6.90;;;18.00;99.90;;;;;;5094185;28;20176;-69
2021/05/01 02:38:36;;;;;;;12.30;6.40;;;18.00;99.90;;;;;;5093998;28;20201;-71
2021/05/01 02:41:54;;;;;;;6.97;6.17;;;18.00;99.90;;;;;;5094093;28;20172;-70
2021/05/01 02:44:20;;;;;;;10.53;7.17;;;17.90;99.90;;;;;;5092668;28;20291;-70
2021/05/01 02:46:45;;;;;;;11.10;7.17;;;17.90;99.90;;;;;;5093725;28;20939;-70
2021/05/01 02:49:11;;;;;;;9.67;7.53;;;18.00;99.90;;;;;;5093700;28;20690;-70
2021/05/01 02:51:36;;;;;;;9.27;6.83;;;18.00;99.90;;;;;;5092663;28;20634;-70
2021/05/01 02:54:02;;;;;;;13.20;8.37;;;18.00;99.90;;;;;;5092411;28;20312;-70
2021/05/01 02:56:28;;;;;;;7.40;6.63;;;17.90;99.90;;;;;;5093823;28;20169;-70
2021/05/01 02:58:58;;;;;;;9.60;6.90;;;17.70;99.90;;;;;;5092067;28;20551;-70
2021/05/01 03:01:23;;;;;;;11.47;7.23;;;17.60;99.90;;;;;;5092577;28;20187;-70
2021/05/01 03:03:49;;;;;;;10.87;7.13;;;17.60;99.90;;;;;;5093310;28;20520;-69
2021/05/01 03:06:15;;;;;;;7.17;6.43;;;17.70;99.90;;;;;;5092447;28;20182;-70
2021/05/01 03:08:41;;;;;;;11.20;7.33;;;17.70;99.90;;;;;;5092364;28;20326;-70
2021/05/01 03:11:07;;;;;;;8.03;7.20;;;17.60;99.90;;;;;;5092349;28;20493;-71
2021/05/01 03:13:33;;;;;;;9.33;6.20;;;17.60;99.90;;;;;;5093534;28;20466;-70
2021/05/01 03:15:58;;;;;;;7.47;6.50;;;17.70;99.90;;;;;;5092393;28;20638;-70
2021/05/01 03:18:24;;;;;;;12.07;8.00;;;17.70;99.90;;;;;;5092124;28;20224;-70
2021/05/01 03:20:50;;;;;;;9.10;6.77;;;17.80;99.90;;;;;;5093606;28;20194;-70
2021/05/01 03:23:16;;;;;;;10.70;6.80;;;17.80;99.90;;;;;;5093205;28;20197;-70
2021/05/01 03:25:41;;;;;;;8.50;6.60;;;17.70;99.90;;;;;;5093456;28;20397;-70
2021/05/01 03:28:07;;;;;;;10.67;7.23;;;17.70;99.90;;;;;;5093457;28;20429;-70
2021/05/01 03:30:33;;;;;;;9.80;6.47;;;17.70;99.90;;;;;;5093510;28;20251;-72
2021/05/01 03:32:58;;;;;;;10.20;6.60;;;17.60;99.90;;;;;;5093809;28;20220;-70
2021/05/01 03:35:24;;;;;;;8.57;6.90;;;17.60;99.90;;;;;;5093493;28;20176;-70
2021/05/01 03:37:50;;;;;;;8.20;6.60;;;17.50;99.90;;;;;;5092106;28;20196;-69
2021/05/01 03:40:16;;;;;;;9.77;6.50;;;17.50;99.90;;;;;;5093452;28;20180;-70
2021/05/01 03:42:42;;;;;;;8.30;7.40;;;17.30;99.90;;;;;;5092354;28;20653;-69
2021/05/01 03:45:09;;;;;;;9.53;6.73;;;17.30;99.90;;;;;;5093555;28;20401;-70
2021/05/01 03:47:35;;;;;;;9.40;7.17;;;17.30;99.90;;;;;;5091987;28;20476;-70
2021/05/01 03:50:01;;;;;;;8.33;6.80;;;17.30;99.90;;;;;;5092084;28;20438;-70
2021/05/01 03:52:26;;;;;;;9.73;6.77;;;17.30;99.90;;;;;;5092049;28;20185;-70
2021/05/01 03:54:52;;;;;;;9.20;7.00;;;17.30;99.90;;;;;;5093252;28;20177;-70
2021/05/01 03:57:18;;;;;;;9.60;7.47;;;17.30;99.90;;;;;;5092071;28;20176;-70
2021/05/01 03:59:44;;;;;;;10.40;7.50;;;17.30;99.90;;;;;;5096576;28;20413;-71
2021/05/01 04:02:09;;;;;;;13.33;7.30;;;17.30;99.90;;;;;;5097209;28;20191;-71
2021/05/01 04:04:35;;;;;;;9.93;7.83;;;17.30;99.90;;;;;;5095617;28;20204;-70
2021/05/01 04:07:00;;;;;;;10.37;7.40;;;17.30;99.90;;;;;;5097200;28;20255;-70
2021/05/01 04:09:26;;;;;;;11.33;8.47;;;17.30;99.90;;;;;;5096854;28;20227;-70
2021/05/01 04:11:52;;;;;;;10.73;8.20;;;17.20;99.90;;;;;;5097072;28;20636;-70
2021/05/01 04:14:17;;;;;;;9.93;7.83;;;17.20;99.90;;;;;;5096677;28;20219;-70
2021/05/01 04:16:43;;;;;;;14.50;8.47;;;17.30;99.90;;;;;;5096893;28;20275;-70
2021/05/01 04:19:09;;;;;;;9.40;7.20;;;17.30;99.90;;;;;;5095312;28;20245;-70
2021/05/01 04:21:34;;;;;;;11.23;7.80;;;17.30;99.90;;;;;;5096791;28;20177;-70
2021/05/01 04:24:00;;;;;;;11.50;7.97;;;17.40;99.90;;;;;;5095982;28;20193;-70
2021/05/01 04:26:25;;;;;;;10.70;8.70;;;17.30;99.90;;;;;;5096641;28;20289;-70
2021/05/01 04:28:52;;;;;;;11.00;8.27;;;17.30;99.90;;;;;;5111729;28;20209;-70
2021/05/01 04:31:18;;;;;;;10.33;7.13;;;17.20;99.90;;;;;;5096550;28;20169;-70
2021/05/01 04:33:44;;;;;;;11.03;7.90;;;17.30;99.90;;;;;;5096217;28;20480;-70
2021/05/01 04:36:09;;;;;;;10.77;7.90;;;17.30;99.90;;;;;;5096392;28;20409;-70
2021/05/01 04:38:35;;;;;;;9.90;7.83;;;17.30;99.90;;;;;;5096213;28;20618;-70
2021/05/01 04:41:01;;;;;;;13.50;7.53;;;17.40;99.90;;;;;;5096279;28;20610;-70
2021/05/01 04:43:27;;;;;;;11.13;7.10;;;17.40;99.90;;;;;;5095960;28;20204;-70
2021/05/01 04:45:54;;;;;;;14.27;7.57;;;17.40;99.90;;;;;;5096162;28;20165;-70
2021/05/01 04:48:20;;;;;;;9.20;7.00;;;17.50;99.90;;;;;;5095714;28;20303;-70
2021/05/01 04:50:50;;;;;;;8.70;7.27;;;17.60;99.90;;;;;;5095770;28;20494;-70
2021/05/01 04:53:16;;;;;;;11.93;7.70;;;17.60;99.90;;;;;;5095841;28;20500;-70
2021/05/01 04:55:42;;;;;;;9.40;7.30;;;17.60;99.90;;;;;;5095925;28;20452;-70
2021/05/01 04:58:07;;;;;;;9.73;7.17;;;17.70;99.90;;;;;;5095815;28;20439;-70
2021/05/01 05:00:33;;;;;;;10.13;6.70;;;17.80;99.90;;;;;;5095929;28;20251;-70
2021/05/01 05:02:58;;;;;;;11.50;7.47;;;17.90;99.90;;;;;;5096230;28;20192;-70
2021/05/01 05:05:24;;;;;;;8.77;7.40;;;17.90;99.90;;;;;;5095765;28;20181;-70
2021/05/01 05:07:50;;;;;;;12.57;8.50;;;18.00;99.90;;;;;;5096086;28;20220;-71
2021/05/01 05:10:15;;;;;;;15.90;11.20;;;18.00;99.90;;;;;;5094046;28;20280;-70
2021/05/01 05:12:42;;;;;;;17.10;11.80;;;18.10;99.90;;;;;;5095947;28;20182;-70
2021/05/01 05:15:08;;;;;;;12.63;8.97;;;18.10;99.90;;;;;;5094387;28;20410;-70
2021/05/01 05:17:34;;;;;;;11.60;7.80;;;18.10;99.90;;;;;;5095917;28;20414;-70
2021/05/01 05:20:00;;;;;;;13.70;9.73;;;18.20;99.90;;;;;;5095465;28;20547;-70
2021/05/01 05:22:26;;;;;;;11.27;7.57;;;18.20;99.90;;;;;;5095700;28;20409;-70
2021/05/01 05:24:51;;;;;;;11.57;7.63;;;18.20;99.90;;;;;;5095392;28;20207;-70
2021/05/01 05:27:17;;;;;;;11.60;7.40;;;18.30;99.90;;;;;;5095716;28;20170;-70
2021/05/01 05:29:50;;;;;;;10.13;7.30;;;18.40;99.90;;;;;;5095304;28;20261;-71
2021/05/01 05:32:16;;;;;;;12.50;7.30;;;18.40;99.90;;;;;;5094006;28;20185;-70
2021/05/01 05:34:42;;;;;;;10.80;6.20;;;18.50;99.90;;;;;;5095125;28;20835;-71
2021/05/01 05:37:07;;;;;;;7.87;6.33;;;18.50;99.90;;;;;;5095060;28;20436;-70
2021/05/01 05:39:33;;;;;;;9.13;6.97;;;18.50;99.90;;;;;;5095132;28;20200;-70
2021/05/01 05:41:58;;;;;;;11.00;6.50;;;18.50;99.90;;;;;;5095272;28;20250;-70
2021/05/01 05:44:24;;;;;;;7.50;6.43;;;18.40;99.90;;;;;;5094998;28;20284;-70
2021/05/01 05:46:50;;;;;;;8.00;6.20;;;18.50;99.90;;;;;;5094914;28;20182;-70
2021/05/01 05:49:15;;;;;;;10.73;6.50;;;18.30;99.90;;;;;;5094281;28;20239;-70
2021/05/01 05:51:41;;;;;;;8.10;6.53;;;18.30;99.90;;;;;;5095029;28;20181;-70
2021/05/01 05:54:07;;;;;;;9.10;6.60;;;18.40;99.90;;;;;;5094781;28;20729;-70
2021/05/01 05:56:35;;;;;;;8.10;5.57;;;18.50;99.90;;;;;;5095081;28;20171;-70
2021/05/01 05:59:01;;;;;;;6.47;5.80;;;18.50;99.90;;;;;;5093455;28;20419;-70
2021/05/01 06:01:31;;;;;;;13.40;9.70;;;18.50;99.90;;;;;;5094835;28;20406;-70
2021/05/01 06:03:58;;;;;;;9.13;7.13;;;18.40;99.90;;;;;;5094555;28;20461;-70
2021/05/01 06:06:33;;;;;;;10.53;7.87;;;18.60;99.90;;;;;;5094680;28;20425;-70
2021/05/01 06:08:58;;;;;;;12.47;8.23;;;18.70;99.90;;;;;;5094096;28;20420;-71
2021/05/01 06:11:25;;;;;;;7.40;6.03;;;18.60;99.90;;;;;;5094476;28;20902;-70
2021/05/01 06:13:51;;;;;;;6.80;6.00;;;18.70;99.90;;;;;;5094094;28;20202;-70
2021/05/01 06:16:20;;;;;;;8.37;5.60;;;18.70;99.90;;;;;;5094374;28;20476;-70
2021/05/01 06:18:47;;;;;;;6.90;5.40;;;18.80;99.90;;;;;;5094306;28;20940;-70
2021/05/01 06:21:14;;;;;;;9.30;7.13;;;18.90;99.90;;;;;;5092396;28;20443;-70
2021/05/01 06:23:40;;;;;;;12.50;10.87;;;18.90;99.90;;;;;;5092984;28;20431;-70
2021/05/01 06:26:06;;;;;;;16.43;12.00;;;19.10;99.90;;;;;;5094322;28;20419;-70
2021/05/01 06:28:33;;;;;;;11.00;7.57;;;19.10;99.90;;;;;;5094250;28;20476;-70
2021/05/01 06:31:03;;;;;;;11.63;9.10;;;18.90;99.90;;;;;;5092666;28;20508;-71
2021/05/01 06:33:29;;;;;;;7.27;5.57;;;19.10;99.90;;;;;;5094049;28;20458;-70
2021/05/01 06:35:56;;;;;;;7.37;4.77;;;19.20;99.90;;;;;;5094047;28;20999;-70
2021/05/01 06:38:22;;;;;;;5.70;4.13;;;19.20;99.90;;;;;;5093743;28;20529;-70
2021/05/01 06:40:52;;;;;;;4.60;3.83;;;19.30;99.90;;;;;;5092686;28;20404;-70
2021/05/01 06:43:47;;;;;;;4.27;3.87;;;19.30;99.90;;;;;;5093889;28;20462;-71
2021/05/01 06:46:17;;;;;;;3.80;3.40;;;19.30;99.90;;;;;;5092710;28;20422;-70
2021/05/01 06:48:50;;;;;;;6.37;5.23;;;19.30;99.90;;;;;;5093724;28;20887;-70
2021/05/01 06:51:16;;;;;;;7.40;4.47;;;19.40;99.90;;;;;;5094031;28;20447;-70
2021/05/01 06:53:41;;;;;;;8.50;4.93;;;19.40;99.90;;;;;;5093713;28;20468;-70
2021/05/01 06:56:07;;;;;;;5.17;4.60;;;19.50;99.90;;;;;;5093780;28;20414;-70
2021/05/01 06:58:34;;;;;;;6.10;5.50;;;19.40;99.90;;;;;;5093871;28;20216;-70
2021/05/01 07:01:04;;;;;;;8.57;5.43;;;19.40;99.90;;;;;;5093825;28;20909;-70
2021/05/01 07:03:45;;;;;;;7.87;4.70;;;19.30;99.90;;;;;;5092508;28;20963;-70
2021/05/01 07:06:18;;;;;;;5.40;4.47;;;19.40;99.90;;;;;;5093907;28;20892;-70
2021/05/01 07:08:44;;;;;;;5.80;4.47;;;19.50;99.90;;;;;;5093623;28;20933;-70
2021/05/01 07:11:12;;;;;;;5.30;4.57;;;19.70;99.90;;;;;;5092432;28;20426;-69
2021/05/01 07:13:41;;;;;;;8.83;4.57;;;19.70;99.90;;;;;;5093529;28;20479;-70
2021/05/01 07:16:10;;;;;;;8.40;4.70;;;19.80;99.90;;;;;;5093342;28;20415;-70
2021/05/01 07:18:38;;;;;;;4.90;4.50;;;19.90;99.90;;;;;;5093321;28;20965;-70
2021/05/01 07:21:04;;;;;;;6.33;5.00;;;19.80;99.90;;;;;;5092317;28;20427;-70
2021/05/01 07:23:29;;;;;;;8.53;5.30;;;19.60;99.90;;;;;;5093386;28;20431;-70
2021/05/01 07:25:55;;;;;;;6.50;4.70;;;19.60;99.90;;;;;;5092315;28;20534;-70
2021/05/01 07:28:26;;;;;;;7.13;4.50;;;19.80;99.90;;;;;;5093529;28;20211;-70
2021/05/01 07:30:54;;;;;;;9.67;5.37;;;19.90;99.90;;;;;;5093520;28;20164;-70
2021/05/01 07:33:29;;;;;;;5.20;4.10;;;19.90;99.90;;;;;;5096361;28;20498;-70
2021/05/01 07:35:59;;;;;;;6.93;5.20;;;19.90;99.90;;;;;;5097131;28;20523;-70
2021/05/01 07:38:26;;;;;;;7.60;4.97;;;19.90;99.90;;;;;;5096095;28;20871;-70
2021/05/01 07:40:53;;;;;;;8.47;4.53;;;20.10;99.90;;;;;;5097128;28;20434;-71
2021/05/01 07:43:21;;;;;;;8.47;4.93;;;20.20;99.90;;;;;;5097137;28;20431;-70
2021/05/01 07:45:51;;;;;;;8.60;6.40;;;20.30;99.90;;;;;;5097240;28;20531;-70
2021/05/01 07:48:19;;;;;;;6.00;5.13;;;20.40;99.90;;;;;;5097240;28;20464;-70
2021/05/01 07:50:47;;;;;;;7.30;4.70;;;20.70;99.90;;;;;;5095883;28;20439;-70
2021/05/01 07:53:13;;;;;;;6.17;5.00;;;20.80;99.90;;;;;;5095801;28;20491;-70
2021/05/01 07:55:40;;;;;;;7.60;4.70;;;20.90;99.90;;;;;;5097074;28;20397;-71
2021/05/01 07:58:06;;;;;;;5.47;4.60;;;21.10;99.90;;;;;;5097095;28;20993;-72
2021/05/01 08:00:32;;;;;;;6.47;4.37;;;21.50;99.90;;;;;;5097077;28;20397;-70
2021/05/01 08:02:59;;;;;;;4.67;4.20;;;21.90;99.90;;;;;;5097327;28;21010;-70
2021/05/01 08:05:25;;;;;;;6.50;4.77;;;21.80;99.90;;;;;;5095662;28;20416;-71
2021/05/01 08:07:52;;;;;;;6.60;4.97;;;21.80;99.90;;;;;;5095721;28;20447;-70
2021/05/01 08:10:18;;;;;;;6.60;4.27;;;21.90;99.90;;;;;;5096817;28;20256;-71
2021/05/01 08:12:43;;;;;;;4.70;4.10;;;21.90;99.90;;;;;;5097145;28;20468;-70
2021/05/01 08:15:12;;;;;;;6.97;5.20;;;21.90;99.90;;;;;;5096770;28;20168;-72
2021/05/01 08:17:40;;;;;;;5.40;4.13;;;21.90;99.90;;;;;;5095520;28;20746;-70
2021/05/01 08:20:07;;;;;;;7.10;5.53;;;22.30;99.90;;;;;;5096760;28;20412;-71
2021/05/01 08:22:32;;;;;;;7.10;5.17;;;22.30;99.90;;;;;;5097038;28;20474;-70
2021/05/01 08:24:58;;;;;;;8.50;7.20;;;22.50;99.90;;;;;;5095366;28;20413;-72
2021/05/01 08:27:25;;;;;;;7.57;5.20;;;22.70;99.90;;;;;;5096856;28;20231;-71
2021/05/01 08:29:50;;;;;;;6.60;4.80;;;22.60;99.90;;;;;;5096446;28;20169;-71
2021/05/01 08:32:17;;;;;;;6.37;4.70;;;22.70;99.90;;;;;;5096706;28;20425;-71
2021/05/01 08:34:43;;;;;;;6.23;5.20;;;22.60;99.90;;;;;;5096265;28;20573;-70
2021/05/01 08:37:09;;;;;;;9.43;5.60;;;22.40;99.90;;;;;;5096613;28;20481;-70
2021/05/01 08:39:35;;;;;;;4.27;3.87;;;22.60;99.90;;;;;;5111798;28;20505;-70
2021/05/01 08:42:01;;;;;;;7.40;5.50;;;22.90;99.90;;;;;;5094705;28;20462;-71
2021/05/01 08:44:26;;;;;;;6.97;4.17;;;22.80;99.90;;;;;;5095342;28;20198;-70
2021/05/01 08:46:52;;;;;;;8.03;5.17;;;23.00;99.90;;;;;;5095036;28;20176;-70
2021/05/01 08:49:17;;;;;;;7.40;5.90;;;23.10;99.90;;;;;;5096052;28;20200;-71
2021/05/01 08:51:44;;;;;;;4.63;4.23;;;23.20;99.90;;;;;;5094813;28;20513;-70
2021/05/01 08:54:15;;;;;;;8.57;5.20;;;23.60;99.90;;;;;;5095848;28;20218;-71
2021/05/01 08:56:42;;;;;;;6.07;4.67;;;23.60;99.90;;;;;;5096194;28;20419;-70
2021/05/01 08:59:08;;;;;;;5.77;4.70;;;24.20;99.90;;;;;;5095663;28;20433;-70
2021/05/01 09:01:37;;;;;;;6.50;5.03;;;24.90;99.90;;;;;;5095643;28;20411;-70
2021/05/01 09:04:04;;;;;;;5.90;4.23;;;25.20;99.90;;;;;;5095845;28;20198;-71
2021/05/01 09:06:31;;;;;;;4.97;4.00;;;25.10;99.90;;;;;;5095966;28;20506;-70
2021/05/01 09:08:59;;;;;;;5.27;3.80;;;25.70;99.90;;;;;;5095422;28;20439;-71
2021/05/01 09:11:51;;;;;;;5.20;4.10;;;25.80;99.90;;;;;;5095882;28;20415;-70
2021/05/01 09:14:22;;;;;;;7.77;5.73;;;26.10;99.90;;;;;;5092721;28;20484;-71
2021/05/01 09:17:07;;;;;;;7.43;5.73;;;25.90;99.90;;;;;;5095916;28;20972;-70
2021/05/01 09:19:34;;;;;;;8.67;5.03;;;25.70;99.90;;;;;;5095754;28;20451;-71
2021/05/01 09:22:05;;;;;;;9.37;6.13;;;25.40;99.90;;;;;;5095100;28;20778;-70
2021/05/01 09:24:31;;;;;;;9.70;5.60;;;25.80;99.90;;;;;;5095477;28;20432;-71
2021/05/01 09:26:57;;;;;;;6.97;5.00;;;25.10;99.90;;;;;;5094227;28;20810;-71
2021/05/01 09:29:33;;;;;;;7.37;4.80;;;25.20;99.90;;;;;;5094067;28;21017;-71
2021/05/01 09:32:00;;;;;;;8.40;5.00;;;24.90;99.90;;;;;;5095527;28;20405;-71
2021/05/01 09:34:44;;;;;;;7.20;4.87;;;24.90;99.90;;;;;;5095149;28;20499;-71
2021/05/01 09:37:10;;;;;;;5.70;4.87;;;25.10;99.90;;;;;;5093905;28;20467;-71
2021/05/01 09:39:56;;;;;;;8.30;4.97;;;25.10;99.90;;;;;;5093839;28;20826;-71
2021/05/01 09:42:23;;;;;;;9.03;5.73;;;25.40;99.90;;;;;;5095527;28;20784;-71
2021/05/01 09:45:18;;;;;;;6.73;5.30;;;25.30;99.90;;;;;;5094968;28;20850;-71
2021/05/01 09:47:51;;;;;;;5.97;5.37;;;25.30;99.90;;;;;;5089531;28;20480;-71
2021/05/01 09:50:19;;;;;;;11.93;10.73;;;25.30;99.90;;;;;;5094893;28;20470;-71
2021/05/01 09:53:07;;;;;;;8.47;5.33;;;25.60;99.90;;;;;;5095175;28;20437;-71
2021/05/01 09:55:56;;;;;;;8.20;5.67;;;26.20;99.90;;;;;;5092555;28;20497;-71
2021/05/01 09:58:27;;;;;;;7.67;4.63;;;26.50;99.90;;;;;;5093586;28;20795;-71
2021/05/01 10:01:14;;;;;;;6.23;5.00;;;26.50;99.90;;;;;;5094774;28;20409;-70
2021/05/01 10:03:40;;;;;;;4.97;3.70;;;26.10;99.90;;;;;;5094133;28;20449;-71
2021/05/01 10:06:08;;;;;;;6.00;4.53;;;26.00;99.90;;;;;;5094940;28;20413;-71
2021/05/01 10:08:34;;;;;;;8.87;4.30;;;26.20;99.90;;;;;;5093107;28;20444;-71
2021/05/01 10:11:11;;;;;;;5.60;4.03;;;26.30;99.90;;;;;;5094598;28;20469;-71
2021/05/01 10:13:51;;;;;;;4.97;4.10;;;27.00;99.90;;;;;;5094361;28;20554;-71
2021/05/01 10:16:19;;;;;;;13.27;8.63;;;26.40;99.90;;;;;;5094485;28;20845;-71
2021/05/01 10:19:08;;;;;;;19.30;11.63;;;26.80;99.90;;;;;;5094246;28;20460;-71
2021/05/01 10:21:35;;;;;;;10.67;7.00;;;27.20;99.90;;;;;;5093132;28;20459;-71
2021/05/01 10:24:01;;;;;;;8.97;4.73;;;27.30;99.90;;;;;;5094378;28;20490;-71
2021/05/01 10:26:40;;;;;;;5.73;4.50;;;27.40;99.90;;;;;;5094440;28;20405;-71
2021/05/01 10:29:07;;;;;;;13.10;10.57;;;27.30;99.90;;;;;;5092829;28;20436;-71
2021/05/01 10:31:45;;;;;;;5.90;4.07;;;27.40;99.90;;;;;;5094410;28;20413;-71
2021/05/01 10:34:12;;;;;;;8.83;4.60;;;27.50;99.90;;;;;;5092184;28;20495;-70
2021/05/01 10:36:43;;;;;;;9.63;4.17;;;27.40;99.70;;;;;;5094059;28;20421;-71
2021/05/01 10:39:10;;;;;;;9.27;4.17;;;27.30;99.90;;;;;;5087219;28;20464;-71
2021/05/01 10:41:36;;;;;;;5.40;4.07;;;27.10;99.90;;;;;;5073968;28;20918;-70
2021/05/01 10:44:07;;;;;;;4.20;3.60;;;27.30;99.90;;;;;;5073760;28;20783;-71
2021/05/01 10:46:34;;;;;;;7.70;4.60;;;27.20;99.50;;;;;;5072538;28;20430;-70
2021/05/01 10:49:05;;;;;;;5.03;4.10;;;26.90;99.90;;;;;;5073551;28;20959;-71
2021/05/01 10:51:38;;;;;;;5.03;4.03;;;27.10;99.90;;;;;;5073393;28;20421;-72
2021/05/01 10:54:11;;;;;;;5.73;3.97;;;27.30;99.00;;;;;;5071929;28;20472;-71
2021/05/01 10:56:43;;;;;;;5.83;4.90;;;27.10;99.90;;;;;;5073587;28;20430;-71
2021/05/01 10:59:21;;;;;;;9.13;4.90;;;27.20;99.90;;;;;;5073728;28;20422;-71
2021/05/01 11:01:52;;;;;;;6.30;4.80;;;27.40;99.90;;;;;;5071886;28;20429;-71
2021/05/01 11:04:26;;;;;;;7.23;3.80;;;27.10;99.90;;;;;;5073439;28;20469;-71
2021/05/01 11:07:18;;;;;;;6.20;4.40;;;27.20;99.90;;;;;;5087023;28;20416;-71
2021/05/01 11:09:46;;;;;;;5.90;4.27;;;27.10;99.90;;;;;;5090815;28;20425;-71
2021/05/01 11:12:14;;;;;;;4.43;3.73;;;27.30;99.90;;;;;;5093981;28;20421;-71
2021/05/01 11:14:49;;;;;;;4.33;3.50;;;27.30;99.90;;;;;;5091833;28;20899;-70
2021/05/01 11:17:23;;;;;;;3.70;3.20;;;27.00;99.90;;;;;;5092230;28;20423;-71
2021/05/01 11:19:57;;;;;;;6.73;3.80;;;27.10;99.90;;;;;;5093455;28;20420;-71
2021/05/01 11:22:26;;;;;;;4.37;4.00;;;27.60;99.90;;;;;;5092411;28;20813;-71
2021/05/01 11:24:51;;;;;;;8.27;3.50;;;27.80;97.50;;;;;;5093606;28;20843;-71
2021/05/01 11:27:18;;;;;;;2.87;2.67;;;27.40;99.90;;;;;;5092307;28;20467;-71
2021/05/01 11:29:45;;;;;;;6.47;3.80;;;27.40;99.90;;;;;;5093640;28;20602;-71
2021/05/01 11:32:12;;;;;;;5.50;3.50;;;27.00;99.90;;;;;;5093875;28;20417;-71
2021/05/01 11:34:38;;;;;;;6.07;4.60;;;27.50;99.90;;;;;;5091979;28;20469;-71
2021/05/01 11:37:06;;;;;;;6.20;3.37;;;27.80;99.50;;;;;;5093597;28;20508;-70
2021/05/01 11:39:37;;;;;;;12.47;5.77;;;28.00;99.90;;;;;;5093555;28;20425;-70
2021/05/01 11:42:03;;;;;;;5.87;4.30;;;28.30;97.50;;;;;;5093445;28;20470;-71
2021/05/01 11:44:29;;;;;;;5.97;3.50;;;28.20;97.30;;;;;;5092043;28;20469;-71
2021/05/01 11:47:08;;;;;;;4.10;3.07;;;28.20;97.30;;;;;;5093432;28;20452;-71
2021/05/01 11:49:34;;;;;;;3.70;3.40;;;28.10;97.10;;;;;;5093424;28;20197;-71
2021/05/01 11:52:15;;;;;;;12.70;9.13;;;28.00;99.90;;;;;;5093612;28;20419;-70
2021/05/01 11:55:03;;;;;;;9.70;6.00;;;28.10;97.10;;;;;;5093306;28;20216;-71
2021/05/01 11:57:48;;;;;;;5.53;4.50;;;28.30;94.40;;;;;;5093604;28;20454;-71
2021/05/01 12:00:31;;;;;;;10.10;6.83;;;28.20;93.30;;;;;;5093486;28;20412;-71
2021/05/01 12:02:57;;;;;;;5.80;3.60;;;28.20;94.20;;;;;;5092146;28;20441;-71
2021/05/01 12:05:25;;;;;;;7.93;3.80;;;28.10;94.30;;;;;;5093266;28;20417;-70
2021/05/01 12:08:21;;;;;;;5.10;3.27;;;28.10;94.20;;;;;;5093062;28;20443;-70
2021/05/01 12:10:57;;;;;;;7.53;3.90;;;28.20;96.60;;;;;;5093212;28;20489;-71
2021/05/01 12:13:27;;;;;;;5.80;4.00;;;28.40;92.90;;;;;;5093052;28;20467;-71
2021/05/01 12:15:55;;;;;;;11.00;8.57;;;28.10;94.30;;;;;;5092826;28;20742;-71
2021/05/01 12:18:22;;;;;;;4.23;3.53;;;27.90;98.00;;;;;;5091810;28;20966;-71
2021/05/01 12:20:55;;;;;;;5.77;4.27;;;28.20;94.50;;;;;;5096130;28;20446;-71
2021/05/01 12:23:44;;;;;;;5.20;3.80;;;28.40;93.90;;;;;;5095361;28;20520;-71
2021/05/01 12:26:33;;;;;;;4.90;3.60;;;28.40;92.30;;;;;;5096768;28;20935;-70
2021/05/01 12:29:21;;;;;;;6.63;5.43;;;28.40;96.10;;;;;;5095056;28;20443;-71
2021/05/01 12:32:06;;;;;;;4.73;4.10;;;28.40;96.40;;;;;;5096697;28;20742;-71
2021/05/01 12:34:47;;;;;;;4.30;3.90;;;28.40;96.10;;;;;;5096289;28;20904;-71
2021/05/01 12:37:14;;;;;;;6.13;5.10;;;28.40;93.60;;;;;;5095189;28;20794;-70
2021/05/01 12:39:40;;;;;;;10.20;5.87;;;28.30;97.30;;;;;;5094954;28;20429;-71
2021/05/01 12:42:40;;;;;;;3.50;3.07;;;27.80;99.80;;;;;;5096399;28;20438;-71
2021/05/01 12:45:40;;;;;;;6.07;3.70;;;27.90;97.10;;;;;;5094451;28;20427;-71
2021/05/01 12:48:05;;;;;;;7.90;5.20;;;27.80;99.90;;;;;;5096222;28;20473;-71
2021/05/01 12:50:31;;;;;;;5.27;4.23;;;27.80;98.40;;;;;;5096144;28;20915;-72
2021/05/01 12:53:30;;;;;;;4.57;3.30;;;27.90;99.90;;;;;;5095972;28;20193;-71
2021/05/01 12:56:28;;;;;;;6.63;3.50;;;27.90;99.80;;;;;;5094550;28;20193;-71